createdAt,value
2018-05-11T00:00:44.662Z,11.75
2018-05-11T00:03:12.152Z,11.70
2018-05-11T00:05:39.618Z,11.68
2018-05-11T00:08:07.082Z,11.61
2018-05-11T00:10:34.591Z,11.49
2018-05-11T00:13:02.054Z,11.49
2018-05-11T00:15:29.541Z,11.58
2018-05-11T00:17:57.006Z,11.53
2018-05-11T00:20:24.498Z,11.51
2018-05-11T00:22:51.962Z,11.49
2018-05-11T00:25:19.442Z,11.48
2018-05-11T00:27:46.905Z,11.52
2018-05-11T00:30:14.389Z,11.39
2018-05-11T00:32:41.859Z,11.27
2018-05-11T00:35:09.336Z,11.25
2018-05-11T00:37:36.797Z,11.23
2018-05-11T00:40:04.286Z,11.29
2018-05-11T00:42:31.757Z,11.27
2018-05-11T00:44:59.269Z,11.36
2018-05-11T00:47:26.744Z,11.37
2018-05-11T00:49:54.319Z,11.28
2018-05-11T00:52:21.809Z,11.33
2018-05-11T00:54:49.298Z,11.34
2018-05-11T00:57:16.769Z,11.30
2018-05-11T00:59:44.262Z,11.22
2018-05-11T01:02:11.727Z,11.26
2018-05-11T01:04:39.209Z,11.29
2018-05-11T01:07:06.682Z,11.30
2018-05-11T01:09:34.180Z,11.38
2018-05-11T01:12:01.698Z,11.30
2018-05-11T01:14:29.536Z,11.22
2018-05-11T01:16:57.059Z,11.27
2018-05-11T01:19:24.539Z,11.39
2018-05-11T01:21:52.015Z,11.40
2018-05-11T01:24:19.506Z,11.43
2018-05-11T01:26:46.969Z,11.35
2018-05-11T01:29:14.429Z,11.28
2018-05-11T01:31:41.922Z,11.20
2018-05-11T01:34:09.394Z,11.14
2018-05-11T01:36:36.878Z,11.03
2018-05-11T01:39:04.354Z,10.96
2018-05-11T01:41:31.853Z,10.92
2018-05-11T01:44:00.123Z,10.79
2018-05-11T01:46:27.623Z,10.66
2018-05-11T01:48:55.115Z,10.66
2018-05-11T01:51:22.597Z,10.54
2018-05-11T01:53:50.069Z,10.49
2018-05-11T01:56:17.567Z,10.41
2018-05-11T01:58:45.083Z,10.35
2018-05-11T02:01:12.582Z,10.32
2018-05-11T02:03:40.060Z,10.25
2018-05-11T02:06:07.566Z,10.21
2018-05-11T02:08:35.038Z,10.19
2018-05-11T02:11:02.529Z,10.18
2018-05-11T02:13:30.007Z,10.16
2018-05-11T02:15:57.497Z,10.12
2018-05-11T02:18:24.969Z,10.09
2018-05-11T02:20:52.468Z,10.04
2018-05-11T02:23:19.961Z,10.02
2018-05-11T02:25:47.521Z,9.79
2018-05-11T02:28:14.934Z,9.71
2018-05-11T02:30:42.427Z,9.66
2018-05-11T02:33:09.903Z,9.57
2018-05-11T02:35:37.398Z,9.52
2018-05-11T02:38:04.875Z,9.45
2018-05-11T02:40:32.373Z,9.47
2018-05-11T02:42:59.833Z,9.38
2018-05-11T02:45:27.325Z,9.30
2018-05-11T02:47:54.803Z,9.32
2018-05-11T02:50:22.298Z,9.34
2018-05-11T02:52:49.781Z,9.33
2018-05-11T02:55:17.250Z,9.22
2018-05-11T02:57:44.737Z,9.15
2018-05-11T03:00:12.202Z,9.12
2018-05-11T03:02:39.681Z,9.17
2018-05-11T03:05:07.142Z,9.18
2018-05-11T03:07:34.634Z,9.13
2018-05-11T03:10:02.168Z,9.18
2018-05-11T03:12:29.658Z,9.09
2018-05-11T03:14:57.127Z,9.13
2018-05-11T03:17:24.618Z,9.16
2018-05-11T03:19:52.082Z,9.13
2018-05-11T03:22:19.569Z,9.11
2018-05-11T03:24:47.032Z,9.13
2018-05-11T03:27:14.522Z,9.12
2018-05-11T03:29:41.997Z,9.01
2018-05-11T03:32:09.482Z,8.96
2018-05-11T03:34:36.950Z,8.86
2018-05-11T03:37:04.454Z,8.85
2018-05-11T03:39:31.927Z,8.85
2018-05-11T03:41:59.409Z,8.89
2018-05-11T03:44:26.881Z,8.81
2018-05-11T03:46:54.376Z,8.82
2018-05-11T03:49:21.838Z,8.83
2018-05-11T03:51:49.327Z,8.78
2018-05-11T03:54:16.801Z,8.60
2018-05-11T03:56:44.281Z,8.59
2018-05-11T03:59:11.817Z,8.59
2018-05-11T04:01:51.250Z,8.58
2018-05-11T04:04:30.375Z,8.59
2018-05-11T04:07:09.684Z,8.62
2018-05-11T04:09:37.153Z,8.62
2018-05-11T04:12:04.649Z,8.62
2018-05-11T04:14:32.969Z,8.58
2018-05-11T04:17:00.457Z,8.51
2018-05-11T04:19:27.926Z,8.61
2018-05-11T04:21:55.411Z,8.72
2018-05-11T04:24:22.890Z,8.83
2018-05-11T04:26:50.588Z,8.94
2018-05-11T04:29:18.076Z,9.01
2018-05-11T04:31:45.542Z,8.95
2018-05-11T04:34:13.097Z,9.06
2018-05-11T04:36:40.584Z,9.12
2018-05-11T04:39:08.070Z,8.89
2018-05-11T04:41:35.537Z,9.01
2018-05-11T04:44:03.030Z,8.91
2018-05-11T04:46:30.509Z,8.99
2018-05-11T04:48:58.010Z,8.87
2018-05-11T04:51:25.477Z,8.91
2018-05-11T04:53:52.963Z,9.15
2018-05-11T04:56:20.454Z,9.27
2018-05-11T04:58:47.953Z,9.46
2018-05-11T05:01:16.548Z,9.55
2018-05-11T05:03:44.041Z,9.51
2018-05-11T05:06:11.502Z,9.45
2018-05-11T05:08:38.993Z,9.52
2018-05-11T05:11:06.465Z,9.54
2018-05-11T05:13:33.954Z,9.88
2018-05-11T05:16:01.426Z,10.28
2018-05-11T05:18:28.917Z,10.16
2018-05-11T05:20:56.389Z,10.22
2018-05-11T05:23:23.882Z,10.38
2018-05-11T05:25:51.363Z,10.36
2018-05-11T05:28:18.862Z,10.52
2018-05-11T05:30:46.399Z,10.65
2018-05-11T05:33:13.996Z,10.54
2018-05-11T05:35:41.396Z,10.55
2018-05-11T05:38:08.893Z,11.01
2018-05-11T05:40:36.377Z,11.30
2018-05-11T05:43:03.846Z,11.03
2018-05-11T05:45:31.342Z,10.86
2018-05-11T05:47:58.809Z,11.08
2018-05-11T05:50:26.297Z,11.78
2018-05-11T05:52:53.809Z,12.27
2018-05-11T05:55:21.310Z,12.44
2018-05-11T05:57:48.798Z,12.85
2018-05-11T06:00:16.316Z,13.24
2018-05-11T06:02:43.791Z,13.11
2018-05-11T06:05:11.299Z,13.39
2018-05-11T06:07:38.775Z,13.48
2018-05-11T06:10:06.271Z,13.38
2018-05-11T06:12:33.750Z,13.73
2018-05-11T06:15:01.239Z,13.70
2018-05-11T06:17:29.606Z,13.97
2018-05-11T06:19:57.093Z,14.02
2018-05-11T06:22:24.561Z,14.22
2018-05-11T06:24:52.232Z,14.29
2018-05-11T06:27:19.543Z,14.28
2018-05-11T06:29:47.038Z,14.21
2018-05-11T06:32:14.513Z,14.40
2018-05-11T06:34:42.015Z,14.16
2018-05-11T06:37:09.495Z,14.11
2018-05-11T06:39:36.982Z,13.70
2018-05-11T06:42:04.461Z,13.98
2018-05-11T06:44:31.954Z,13.78
2018-05-11T06:46:59.417Z,13.93
2018-05-11T06:49:26.910Z,14.29
2018-05-11T06:51:54.386Z,14.64
2018-05-11T06:54:21.893Z,14.60
2018-05-11T06:56:49.362Z,14.49
2018-05-11T06:59:16.830Z,14.50
2018-05-11T07:01:44.316Z,14.27
2018-05-11T07:04:11.785Z,14.03
2018-05-11T07:06:39.270Z,14.26
2018-05-11T07:09:06.742Z,14.58
2018-05-11T07:11:34.233Z,14.62
2018-05-11T07:14:01.714Z,14.87
2018-05-11T07:16:29.209Z,14.67
2018-05-11T07:18:56.687Z,14.47
2018-05-11T07:21:24.182Z,14.68
2018-05-11T07:23:51.656Z,14.71
2018-05-11T07:26:19.137Z,15.22
2018-05-11T07:28:46.605Z,14.98
2018-05-11T07:31:14.094Z,15.30
2018-05-11T07:33:41.585Z,15.43
2018-05-11T07:36:09.077Z,15.33
2018-05-11T07:38:36.552Z,15.51
2018-05-11T07:41:04.042Z,15.01
2018-05-11T07:43:31.606Z,15.30
2018-05-11T07:45:59.013Z,15.18
2018-05-11T07:48:26.482Z,15.52
2018-05-11T07:50:53.977Z,15.69
2018-05-11T07:53:21.450Z,15.56
2018-05-11T07:55:48.937Z,15.14
2018-05-11T07:58:16.475Z,14.79
2018-05-11T08:00:43.970Z,14.62
2018-05-11T08:03:11.447Z,14.76
2018-05-11T08:05:38.929Z,14.88
2018-05-11T08:08:06.410Z,15.72
2018-05-11T08:10:33.897Z,16.63
2018-05-11T08:13:01.362Z,16.85
2018-05-11T08:15:28.869Z,16.78
2018-05-11T08:17:56.334Z,16.75
2018-05-11T08:20:23.805Z,17.24
2018-05-11T08:22:51.290Z,17.72
2018-05-11T08:25:18.770Z,17.08
2018-05-11T08:27:46.261Z,17.51
2018-05-11T08:30:13.734Z,17.60
2018-05-11T08:32:41.222Z,17.29
2018-05-11T08:35:08.694Z,17.16
2018-05-11T08:37:36.185Z,17.08
2018-05-11T08:40:03.667Z,17.10
2018-05-11T08:42:31.162Z,17.26
2018-05-11T08:44:58.628Z,17.39
2018-05-11T08:47:26.117Z,17.41
2018-05-11T08:49:53.581Z,17.22
2018-05-11T08:52:21.069Z,17.35
2018-05-11T08:54:48.541Z,17.07
2018-05-11T08:57:16.117Z,16.86
2018-05-11T08:59:43.518Z,17.28
2018-05-11T09:02:11.012Z,17.49
2018-05-11T09:04:38.490Z,16.96
2018-05-11T09:07:05.982Z,16.47
2018-05-11T09:09:33.462Z,16.53
2018-05-11T09:12:00.946Z,16.94
2018-05-11T09:14:28.427Z,17.25
2018-05-11T09:16:55.918Z,17.37
2018-05-11T09:19:23.393Z,17.37
2018-05-11T09:21:50.884Z,17.67
2018-05-11T09:24:18.354Z,17.69
2018-05-11T09:26:45.838Z,18.03
2018-05-11T09:29:13.306Z,18.09
2018-05-11T09:31:40.861Z,17.99
2018-05-11T09:34:08.290Z,17.39
2018-05-11T09:36:35.782Z,17.48
2018-05-11T09:39:03.253Z,17.90
2018-05-11T09:41:30.721Z,17.54
2018-05-11T09:43:58.214Z,17.68
2018-05-11T09:46:25.729Z,17.81
2018-05-11T09:48:53.217Z,18.14
2018-05-11T09:51:20.681Z,18.30
2018-05-11T09:53:48.165Z,18.38
2018-05-11T09:56:15.630Z,18.19
2018-05-11T09:58:43.131Z,18.56
2018-05-11T10:01:10.604Z,18.87
2018-05-11T10:03:38.098Z,18.68
2018-05-11T10:06:05.562Z,18.76
2018-05-11T10:08:33.047Z,19.13
2018-05-11T10:11:00.518Z,19.13
2018-05-11T10:13:28.007Z,18.84
2018-05-11T10:15:55.475Z,18.57
2018-05-11T10:18:22.967Z,18.61
2018-05-11T10:20:50.450Z,19.05
2018-05-11T10:23:17.941Z,19.18
2018-05-11T10:25:45.405Z,19.34
2018-05-11T10:28:12.894Z,19.08
2018-05-11T10:30:40.358Z,19.24
2018-05-11T10:33:07.838Z,19.53
2018-05-11T10:35:35.318Z,19.32
2018-05-11T10:38:02.812Z,19.20
2018-05-11T10:40:30.284Z,19.13
2018-05-11T10:42:57.773Z,19.27
2018-05-11T10:45:25.247Z,19.50
2018-05-11T10:47:52.744Z,20.06
2018-05-11T10:50:20.208Z,20.21
2018-05-11T10:52:47.694Z,20.13
2018-05-11T10:55:15.166Z,20.36
2018-05-11T10:57:42.655Z,20.50
2018-05-11T11:00:10.140Z,20.85
2018-05-11T11:02:37.625Z,20.19
2018-05-11T11:05:05.102Z,20.01
2018-05-11T11:07:32.572Z,19.74
2018-05-11T11:10:00.063Z,20.64
2018-05-11T11:12:27.530Z,21.34
2018-05-11T11:14:55.015Z,20.57
2018-05-11T11:17:22.498Z,20.97
2018-05-11T11:19:49.985Z,21.53
2018-05-11T11:22:17.450Z,21.11
2018-05-11T11:24:44.944Z,20.48
2018-05-11T11:27:12.418Z,21.40
2018-05-11T11:29:39.909Z,22.07
2018-05-11T11:32:07.387Z,21.65
2018-05-11T11:34:34.876Z,21.82
2018-05-11T11:37:02.350Z,22.40
2018-05-11T11:39:29.832Z,22.73
2018-05-11T11:41:57.299Z,23.55
2018-05-11T11:44:24.812Z,22.97
2018-05-11T11:46:52.278Z,22.55
2018-05-11T11:49:19.757Z,22.45
2018-05-11T11:51:47.217Z,23.18
2018-05-11T11:54:14.709Z,22.83
2018-05-11T11:56:42.171Z,23.00
2018-05-11T11:59:09.648Z,22.75
2018-05-11T12:01:37.117Z,22.56
2018-05-11T12:04:04.606Z,23.06
2018-05-11T12:06:32.065Z,23.77
2018-05-11T12:08:59.560Z,24.10
2018-05-11T12:11:27.028Z,23.53
2018-05-11T12:13:54.585Z,23.95
2018-05-11T12:16:22.007Z,24.15
2018-05-11T12:18:49.506Z,24.42
2018-05-11T12:21:16.970Z,25.36
2018-05-11T12:23:44.432Z,24.82
2018-05-11T12:26:11.910Z,24.57
2018-05-11T12:28:39.365Z,24.43
2018-05-11T12:31:06.844Z,24.18
2018-05-11T12:33:34.306Z,24.26
2018-05-11T12:36:01.802Z,24.05
2018-05-11T12:38:29.265Z,24.58
2018-05-11T12:40:56.746Z,25.13
2018-05-11T12:43:24.213Z,25.45
2018-05-11T12:45:51.701Z,24.24
2018-05-11T12:48:19.162Z,24.99
2018-05-11T12:50:46.646Z,25.84
2018-05-11T12:53:14.109Z,26.50
2018-05-11T12:55:41.935Z,26.66
2018-05-11T12:58:09.398Z,27.77
2018-05-11T13:00:36.881Z,27.78
2018-05-11T13:03:04.343Z,28.18
2018-05-11T13:05:32.260Z,27.99
2018-05-11T13:07:59.719Z,27.26
2018-05-11T13:10:27.389Z,26.68
2018-05-11T13:12:54.899Z,25.37
2018-05-11T13:15:22.359Z,25.94
2018-05-11T13:17:49.830Z,28.21
2018-05-11T13:20:17.314Z,28.67
2018-05-11T13:22:44.787Z,28.57
2018-05-11T13:25:12.373Z,28.19
2018-05-11T13:27:39.845Z,28.00
2018-05-11T13:30:07.326Z,27.81
2018-05-11T13:32:34.798Z,27.42
2018-05-11T13:35:02.289Z,27.00
2018-05-11T13:37:29.754Z,26.50
2018-05-11T13:39:57.265Z,25.97
2018-05-11T13:42:24.729Z,25.77
2018-05-11T13:44:52.186Z,25.30
2018-05-11T13:47:19.670Z,25.00
2018-05-11T13:49:47.137Z,23.99
2018-05-11T13:52:14.625Z,24.09
2018-05-11T13:54:42.082Z,24.14
2018-05-11T13:57:09.601Z,26.03
2018-05-11T13:59:37.088Z,29.37
2018-05-11T14:02:04.590Z,29.95
2018-05-11T14:04:32.052Z,28.68
2018-05-11T14:06:59.538Z,27.15
2018-05-11T14:09:27.006Z,26.57
2018-05-11T14:11:54.540Z,27.43
2018-05-11T14:14:22.006Z,27.78
2018-05-11T14:16:49.490Z,27.39
2018-05-11T14:19:16.953Z,28.71
2018-05-11T14:21:44.433Z,29.56
2018-05-11T14:24:11.903Z,30.12
2018-05-11T14:26:39.390Z,29.22
2018-05-11T14:29:06.864Z,28.29
2018-05-11T14:31:34.365Z,28.44
2018-05-11T14:34:01.839Z,28.05
2018-05-11T14:36:29.327Z,27.76
2018-05-11T14:38:56.798Z,27.43
2018-05-11T14:41:24.285Z,27.69
2018-05-11T14:43:51.750Z,29.67
2018-05-11T14:46:19.233Z,30.92
2018-05-11T14:48:46.693Z,31.58
2018-05-11T14:51:14.183Z,32.49
2018-05-11T14:53:41.981Z,31.75
2018-05-11T14:56:09.465Z,30.40
2018-05-11T14:58:37.096Z,30.15
2018-05-11T15:01:04.529Z,28.91
2018-05-11T15:03:32.005Z,28.35
2018-05-11T15:05:59.497Z,29.15
2018-05-11T15:08:26.987Z,31.01
2018-05-11T15:10:54.445Z,31.93
2018-05-11T15:13:21.930Z,34.39
2018-05-11T15:15:49.393Z,34.41
2018-05-11T15:18:16.873Z,34.68
2018-05-11T15:20:44.329Z,32.44
2018-05-11T15:23:11.814Z,30.37
2018-05-11T15:25:39.277Z,31.68
2018-05-11T15:28:07.528Z,32.66
2018-05-11T15:30:34.993Z,30.68
2018-05-11T15:33:02.495Z,29.63
2018-05-11T15:35:29.999Z,28.85
2018-05-11T15:37:57.478Z,28.37
2018-05-11T15:40:25.002Z,29.17
2018-05-11T15:42:52.455Z,31.01
2018-05-11T15:45:19.919Z,32.70
2018-05-11T15:47:47.397Z,32.53
2018-05-11T15:50:14.870Z,31.90
2018-05-11T15:52:42.358Z,30.06
2018-05-11T15:55:09.821Z,28.37
2018-05-11T15:57:37.303Z,26.48
2018-05-11T16:00:04.764Z,25.87
2018-05-11T16:02:32.251Z,26.26
2018-05-11T16:04:59.721Z,25.34
2018-05-11T16:07:27.206Z,25.50
2018-05-11T16:09:54.676Z,25.72
2018-05-11T16:12:22.153Z,25.91
2018-05-11T16:14:49.610Z,26.42
2018-05-11T16:17:17.094Z,25.96
2018-05-11T16:19:44.553Z,26.08
2018-05-11T16:22:12.137Z,26.01
2018-05-11T16:24:39.626Z,26.57
2018-05-11T16:27:07.096Z,29.05
2018-05-11T16:29:34.583Z,31.24
2018-05-11T16:32:02.052Z,31.84
2018-05-11T16:34:29.534Z,32.24
2018-05-11T16:36:57.010Z,32.70
2018-05-11T16:39:24.493Z,32.64
2018-05-11T16:41:51.969Z,29.24
2018-05-11T16:44:19.453Z,28.19
2018-05-11T16:46:46.913Z,26.53
2018-05-11T16:49:14.405Z,27.49
2018-05-11T16:51:41.861Z,28.21
2018-05-11T16:54:09.349Z,27.82
2018-05-11T16:56:36.815Z,27.65
2018-05-11T16:59:04.306Z,27.10
2018-05-11T17:01:31.766Z,27.88
2018-05-11T17:03:59.254Z,27.02
2018-05-11T17:06:26.713Z,27.03
2018-05-11T17:08:54.193Z,26.33
2018-05-11T17:11:21.667Z,25.50
2018-05-11T17:13:49.146Z,25.01
2018-05-11T17:16:16.611Z,24.39
2018-05-11T17:18:44.102Z,23.83
2018-05-11T17:21:11.559Z,23.24
2018-05-11T17:23:39.034Z,23.00
2018-05-11T17:26:06.496Z,22.88
2018-05-11T17:28:33.984Z,22.94
2018-05-11T17:31:01.459Z,22.70
2018-05-11T17:33:28.940Z,22.43
2018-05-11T17:35:56.403Z,22.16
2018-05-11T17:38:23.906Z,22.09
2018-05-11T17:40:51.402Z,21.91
2018-05-11T17:43:19.402Z,21.71
2018-05-11T17:45:46.890Z,21.42
2018-05-11T17:48:14.423Z,21.23
2018-05-11T17:50:41.913Z,21.13
2018-05-11T17:53:09.371Z,20.93
2018-05-11T17:55:36.862Z,21.00
2018-05-11T17:58:04.322Z,21.09
2018-05-11T18:00:31.806Z,21.18
2018-05-11T18:02:59.271Z,21.23
2018-05-11T18:05:26.763Z,21.62
2018-05-11T18:07:54.220Z,23.03
2018-05-11T18:10:21.818Z,23.31
2018-05-11T18:12:49.468Z,23.04
2018-05-11T18:15:16.956Z,23.62
2018-05-11T18:17:44.425Z,23.02
2018-05-11T18:20:11.908Z,23.08
2018-05-11T18:22:39.383Z,21.77
2018-05-11T18:25:06.877Z,21.48
2018-05-11T18:27:34.341Z,20.98
2018-05-11T18:30:01.872Z,20.98
2018-05-11T18:32:29.313Z,20.62
2018-05-11T18:34:56.795Z,20.61
2018-05-11T18:37:24.261Z,20.15
2018-05-11T18:39:51.737Z,19.91
2018-05-11T18:42:19.203Z,19.86
2018-05-11T18:44:46.685Z,19.68
2018-05-11T18:47:14.141Z,19.56
2018-05-11T18:49:41.639Z,19.42
2018-05-11T18:52:09.106Z,19.24
2018-05-11T18:54:36.989Z,19.08
2018-05-11T18:57:04.066Z,18.81
2018-05-11T18:59:34.043Z,18.71
2018-05-11T19:02:01.510Z,18.55
2018-05-11T19:04:28.970Z,18.47
2018-05-11T19:06:56.478Z,18.31
2018-05-11T19:09:23.951Z,18.21
2018-05-11T19:11:51.438Z,18.03
2018-05-11T19:14:18.899Z,17.81
2018-05-11T19:16:46.388Z,17.67
2018-05-11T19:19:13.846Z,17.66
2018-05-11T19:21:41.334Z,17.62
2018-05-11T19:24:08.814Z,17.73
2018-05-11T19:26:46.240Z,17.75
2018-05-11T19:29:13.726Z,17.80
2018-05-11T19:31:41.215Z,17.81
2018-05-11T19:34:08.690Z,17.64
2018-05-11T19:36:36.198Z,17.73
2018-05-11T19:39:03.664Z,17.70
2018-05-11T19:41:31.152Z,17.61
2018-05-11T19:43:58.613Z,17.60
2018-05-11T19:46:26.100Z,17.59
2018-05-11T19:48:53.561Z,17.59
2018-05-11T19:51:21.043Z,17.57
2018-05-11T19:53:48.510Z,17.52
2018-05-11T19:56:17.547Z,17.48
2018-05-11T19:58:45.184Z,17.39
2018-05-11T20:01:12.791Z,17.34
2018-05-11T20:03:40.498Z,17.29
2018-05-11T20:06:08.071Z,17.23
2018-05-11T20:08:35.648Z,17.23
2018-05-11T20:11:03.238Z,17.06
2018-05-11T20:13:30.730Z,16.91
2018-05-11T20:15:58.263Z,16.96
2018-05-11T20:18:26.006Z,16.93
2018-05-11T20:20:53.525Z,16.84
2018-05-11T20:23:21.031Z,16.84
2018-05-11T20:25:48.635Z,16.88
2018-05-11T20:28:16.154Z,16.90
2018-05-11T20:30:43.813Z,16.86
2018-05-11T20:33:11.460Z,16.82
2018-05-11T20:35:39.719Z,16.83
2018-05-11T20:38:07.242Z,16.80
2018-05-11T20:40:34.742Z,16.73
2018-05-11T20:43:02.281Z,16.63
2018-05-11T20:45:29.790Z,16.47
2018-05-11T20:47:57.289Z,16.32
2018-05-11T20:50:24.781Z,16.24
2018-05-11T20:52:52.302Z,16.20
2018-05-11T20:55:19.835Z,16.13
2018-05-11T20:57:48.128Z,16.14
2018-05-11T21:00:15.546Z,16.14
2018-05-11T21:02:43.392Z,16.14
2018-05-11T21:05:10.886Z,16.10
2018-05-11T21:07:38.433Z,16.13
2018-05-11T21:10:05.977Z,15.99
2018-05-11T21:12:33.587Z,16.01
2018-05-11T21:15:01.098Z,15.98
2018-05-11T21:17:28.625Z,15.98
2018-05-11T21:19:56.133Z,15.94
2018-05-11T21:22:23.955Z,15.99
2018-05-11T21:24:51.464Z,16.03
2018-05-11T21:27:19.133Z,16.02
2018-05-11T21:29:48.515Z,16.08
2018-05-11T21:32:16.006Z,16.04
2018-05-11T21:34:43.734Z,16.03
2018-05-11T21:37:11.235Z,16.05
2018-05-11T21:39:38.721Z,15.98
2018-05-11T21:42:06.243Z,15.93
2018-05-11T21:44:33.732Z,15.94
2018-05-11T21:47:01.207Z,15.92
2018-05-11T21:49:28.689Z,15.93
2018-05-11T21:51:56.201Z,16.03
2018-05-11T21:54:23.741Z,15.95
2018-05-11T21:56:51.298Z,16.01
2018-05-11T21:59:18.807Z,16.04
2018-05-11T22:01:46.340Z,16.04
2018-05-11T22:04:13.874Z,15.98
2018-05-11T22:06:41.411Z,16.00
2018-05-11T22:09:08.918Z,15.96
2018-05-11T22:11:36.480Z,15.86
2018-05-11T22:14:03.986Z,15.02
2018-05-11T22:16:31.550Z,14.73
2018-05-11T22:18:59.074Z,14.68
2018-05-11T22:21:26.622Z,14.69
2018-05-11T22:23:54.142Z,14.70
2018-05-11T22:26:21.649Z,14.76
2018-05-11T22:28:49.160Z,14.72
2018-05-11T22:31:16.686Z,14.64
2018-05-11T22:33:44.194Z,14.58
2018-05-11T22:36:11.699Z,14.31
2018-05-11T22:38:39.251Z,14.40
2018-05-11T22:41:06.767Z,14.42
2018-05-11T22:43:34.323Z,14.44
2018-05-11T22:46:01.847Z,14.48
2018-05-11T22:48:29.403Z,14.47
2018-05-11T22:50:56.937Z,14.45
2018-05-11T22:53:24.478Z,14.53
2018-05-11T22:55:51.975Z,14.44
2018-05-11T22:58:19.546Z,14.47
2018-05-11T23:00:47.052Z,14.33
2018-05-11T23:03:14.578Z,14.35
2018-05-11T23:05:42.092Z,14.35
2018-05-11T23:08:09.595Z,14.37
2018-05-11T23:10:37.113Z,14.40
2018-05-11T23:13:04.597Z,14.38
2018-05-11T23:15:32.113Z,14.38
2018-05-11T23:17:59.613Z,14.28
2018-05-11T23:20:27.154Z,14.29
2018-05-11T23:22:54.646Z,14.20
2018-05-11T23:25:22.197Z,13.99
2018-05-11T23:27:49.779Z,13.95
2018-05-11T23:30:17.248Z,13.90
2018-05-11T23:32:44.795Z,13.94
2018-05-11T23:35:12.422Z,13.94
2018-05-11T23:37:39.926Z,13.99
2018-05-11T23:40:07.418Z,14.04
2018-05-11T23:42:34.914Z,14.03
2018-05-11T23:45:02.450Z,14.08
2018-05-11T23:47:29.993Z,14.02
2018-05-11T23:49:57.494Z,14.00
2018-05-11T23:52:25.014Z,13.86
2018-05-11T23:54:52.504Z,13.75
2018-05-11T23:57:20.025Z,13.85
2018-05-11T23:59:47.592Z,13.72
